sensor_id;sensor_type;location;lat;lon;timestamp;P1;durP1;ratioP1;P2;durP2;ratioP2
17892;SDS011;9072;51.918;4.380;2023-09-08T00:02:27;14.63;;;13.13;;
17892;SDS011;9072;51.918;4.380;2023-09-08T00:04:56;14.13;;;12.93;;
17892;SDS011;9072;51.918;4.380;2023-09-08T00:07:23;14.17;;;12.77;;
17892;SDS011;9072;51.918;4.380;2023-09-08T00:09:50;16.30;;;14.77;;
17892;SDS011;9072;51.918;4.380;2023-09-08T00:12:17;14.50;;;13.00;;
17892;SDS011;9072;51.918;4.380;2023-09-08T00:14:45;15.87;;;14.27;;
17892;SDS011;9072;51.918;4.380;2023-09-08T00:17:12;16.13;;;14.57;;
17892;SDS011;9072;51.918;4.380;2023-09-08T00:19:39;17.40;;;15.70;;
17892;SDS011;9072;51.918;4.380;2023-09-08T00:22:11;15.17;;;13.73;;
17892;SDS011;9072;51.918;4.380;2023-09-08T00:24:38;17.73;;;16.17;;
17892;SDS011;9072;51.918;4.380;2023-09-08T00:27:05;15.90;;;14.50;;
17892;SDS011;9072;51.918;4.380;2023-09-08T00:29:34;16.93;;;15.23;;
17892;SDS011;9072;51.918;4.380;2023-09-08T00:32:03;17.33;;;15.67;;
17892;SDS011;9072;51.918;4.380;2023-09-08T00:34:31;16.63;;;15.13;;
17892;SDS011;9072;51.918;4.380;2023-09-08T00:37:02;15.53;;;14.17;;
17892;SDS011;9072;51.918;4.380;2023-09-08T00:39:35;14.23;;;12.93;;
17892;SDS011;9072;51.918;4.380;2023-09-08T00:42:02;14.97;;;13.67;;
17892;SDS011;9072;51.918;4.380;2023-09-08T00:44:30;14.73;;;13.50;;
17892;SDS011;9072;51.918;4.380;2023-09-08T00:46:59;14.23;;;12.93;;
17892;SDS011;9072;51.918;4.380;2023-09-08T00:49:26;15.27;;;13.27;;
17892;SDS011;9072;51.918;4.380;2023-09-08T00:51:53;16.03;;;14.53;;
17892;SDS011;9072;51.918;4.380;2023-09-08T00:54:21;15.77;;;14.37;;
17892;SDS011;9072;51.918;4.380;2023-09-08T00:56:49;15.70;;;14.20;;
17892;SDS011;9072;51.918;4.380;2023-09-08T00:59:21;17.13;;;15.43;;
17892;SDS011;9072;51.918;4.380;2023-09-08T01:01:49;16.80;;;15.40;;
17892;SDS011;9072;51.918;4.380;2023-09-08T01:04:17;16.50;;;15.00;;
17892;SDS011;9072;51.918;4.380;2023-09-08T01:06:44;15.50;;;14.20;;
17892;SDS011;9072;51.918;4.380;2023-09-08T01:09:12;17.33;;;15.77;;
17892;SDS011;9072;51.918;4.380;2023-09-08T01:11:39;15.20;;;13.80;;
17892;SDS011;9072;51.918;4.380;2023-09-08T01:14:10;14.80;;;13.40;;
17892;SDS011;9072;51.918;4.380;2023-09-08T01:16:38;20.27;;;18.40;;
17892;SDS011;9072;51.918;4.380;2023-09-08T01:19:06;21.10;;;18.87;;
17892;SDS011;9072;51.918;4.380;2023-09-08T01:21:52;18.83;;;17.03;;
17892;SDS011;9072;51.918;4.380;2023-09-08T01:27:51;17.37;;;15.67;;
17892;SDS011;9072;51.918;4.380;2023-09-08T01:30:20;20.43;;;18.53;;
17892;SDS011;9072;51.918;4.380;2023-09-08T01:32:49;20.17;;;18.27;;
17892;SDS011;9072;51.918;4.380;2023-09-08T01:35:17;19.33;;;17.70;;
17892;SDS011;9072;51.918;4.380;2023-09-08T01:37:45;20.93;;;18.93;;
17892;SDS011;9072;51.918;4.380;2023-09-08T01:40:13;21.67;;;19.60;;
17892;SDS011;9072;51.918;4.380;2023-09-08T01:42:41;21.50;;;19.47;;
17892;SDS011;9072;51.918;4.380;2023-09-08T01:45:10;20.40;;;18.50;;
17892;SDS011;9072;51.918;4.380;2023-09-08T01:47:37;21.13;;;19.00;;
17892;SDS011;9072;51.918;4.380;2023-09-08T01:50:05;19.67;;;17.73;;
17892;SDS011;9072;51.918;4.380;2023-09-08T01:52:33;20.27;;;18.47;;
17892;SDS011;9072;51.918;4.380;2023-09-08T01:55:01;18.67;;;16.97;;
17892;SDS011;9072;51.918;4.380;2023-09-08T01:57:28;17.97;;;16.47;;
17892;SDS011;9072;51.918;4.380;2023-09-08T01:59:55;18.90;;;17.10;;
17892;SDS011;9072;51.918;4.380;2023-09-08T02:02:23;18.67;;;16.97;;
17892;SDS011;9072;51.918;4.380;2023-09-08T02:04:51;20.10;;;18.37;;
17892;SDS011;9072;51.918;4.380;2023-09-08T02:07:18;21.37;;;19.33;;
17892;SDS011;9072;51.918;4.380;2023-09-08T02:09:45;23.63;;;21.50;;
17892;SDS011;9072;51.918;4.380;2023-09-08T02:12:12;21.93;;;19.97;;
17892;SDS011;9072;51.918;4.380;2023-09-08T02:14:39;22.30;;;20.17;;
17892;SDS011;9072;51.918;4.380;2023-09-08T02:17:07;21.83;;;19.73;;
17892;SDS011;9072;51.918;4.380;2023-09-08T02:19:38;21.67;;;19.70;;
17892;SDS011;9072;51.918;4.380;2023-09-08T02:22:05;21.17;;;19.17;;
17892;SDS011;9072;51.918;4.380;2023-09-08T02:24:32;22.07;;;20.10;;
17892;SDS011;9072;51.918;4.380;2023-09-08T02:26:59;20.70;;;18.70;;
17892;SDS011;9072;51.918;4.380;2023-09-08T02:29:26;19.07;;;17.30;;
17892;SDS011;9072;51.918;4.380;2023-09-08T02:31:54;19.90;;;18.00;;
17892;SDS011;9072;51.918;4.380;2023-09-08T02:34:21;19.93;;;18.13;;
17892;SDS011;9072;51.918;4.380;2023-09-08T02:36:49;19.90;;;18.20;;
17892;SDS011;9072;51.918;4.380;2023-09-08T02:39:20;19.53;;;17.63;;
17892;SDS011;9072;51.918;4.380;2023-09-08T02:41:48;20.43;;;18.43;;
17892;SDS011;9072;51.918;4.380;2023-09-08T02:44:15;20.10;;;18.17;;
17892;SDS011;9072;51.918;4.380;2023-09-08T02:46:43;19.90;;;18.07;;
17892;SDS011;9072;51.918;4.380;2023-09-08T02:49:10;19.93;;;18.20;;
17892;SDS011;9072;51.918;4.380;2023-09-08T02:51:37;20.47;;;18.57;;
17892;SDS011;9072;51.918;4.380;2023-09-08T02:54:07;20.70;;;18.43;;
17892;SDS011;9072;51.918;4.380;2023-09-08T02:56:35;20.60;;;18.70;;
17892;SDS011;9072;51.918;4.380;2023-09-08T02:59:05;20.03;;;18.17;;
17892;SDS011;9072;51.918;4.380;2023-09-08T03:01:32;18.97;;;17.03;;
17892;SDS011;9072;51.918;4.380;2023-09-08T03:03:59;20.27;;;18.17;;
17892;SDS011;9072;51.918;4.380;2023-09-08T03:06:26;20.63;;;18.50;;
17892;SDS011;9072;51.918;4.380;2023-09-08T03:08:53;19.47;;;17.67;;
17892;SDS011;9072;51.918;4.380;2023-09-08T03:11:23;19.03;;;17.33;;
17892;SDS011;9072;51.918;4.380;2023-09-08T03:13:50;20.27;;;18.17;;
17892;SDS011;9072;51.918;4.380;2023-09-08T03:16:17;20.50;;;18.60;;
17892;SDS011;9072;51.918;4.380;2023-09-08T03:18:44;21.60;;;19.67;;
17892;SDS011;9072;51.918;4.380;2023-09-08T03:21:13;20.33;;;18.43;;
17892;SDS011;9072;51.918;4.380;2023-09-08T03:23:41;20.00;;;17.93;;
17892;SDS011;9072;51.918;4.380;2023-09-08T03:26:09;18.93;;;17.17;;
17892;SDS011;9072;51.918;4.380;2023-09-08T03:28:38;18.60;;;16.80;;
17892;SDS011;9072;51.918;4.380;2023-09-08T03:31:05;19.93;;;17.93;;
17892;SDS011;9072;51.918;4.380;2023-09-08T03:33:33;17.97;;;16.27;;
17892;SDS011;9072;51.918;4.380;2023-09-08T03:36:00;18.63;;;17.00;;
17892;SDS011;9072;51.918;4.380;2023-09-08T03:38:27;18.17;;;16.50;;
17892;SDS011;9072;51.918;4.380;2023-09-08T03:40:55;19.33;;;17.60;;
17892;SDS011;9072;51.918;4.380;2023-09-08T03:43:22;19.83;;;18.10;;
17892;SDS011;9072;51.918;4.380;2023-09-08T03:45:51;21.00;;;19.00;;
17892;SDS011;9072;51.918;4.380;2023-09-08T03:48:18;23.17;;;17.00;;
17892;SDS011;9072;51.918;4.380;2023-09-08T03:50:45;18.53;;;16.73;;
17892;SDS011;9072;51.918;4.380;2023-09-08T03:53:13;18.70;;;16.80;;
17892;SDS011;9072;51.918;4.380;2023-09-08T03:55:40;19.43;;;17.70;;
17892;SDS011;9072;51.918;4.380;2023-09-08T03:58:07;19.20;;;17.50;;
17892;SDS011;9072;51.918;4.380;2023-09-08T04:00:35;18.10;;;16.47;;
17892;SDS011;9072;51.918;4.380;2023-09-08T04:03:04;18.70;;;16.90;;
17892;SDS011;9072;51.918;4.380;2023-09-08T04:05:31;18.20;;;16.50;;
17892;SDS011;9072;51.918;4.380;2023-09-08T04:07:58;18.93;;;17.03;;
17892;SDS011;9072;51.918;4.380;2023-09-08T04:10:26;18.47;;;16.57;;
17892;SDS011;9072;51.918;4.380;2023-09-08T04:12:53;18.40;;;16.57;;
17892;SDS011;9072;51.918;4.380;2023-09-08T04:15:21;18.13;;;16.23;;
17892;SDS011;9072;51.918;4.380;2023-09-08T04:17:48;18.30;;;16.57;;
17892;SDS011;9072;51.918;4.380;2023-09-08T04:20:17;19.00;;;17.27;;
17892;SDS011;9072;51.918;4.380;2023-09-08T04:22:44;18.27;;;16.47;;
17892;SDS011;9072;51.918;4.380;2023-09-08T04:25:12;18.00;;;16.30;;
17892;SDS011;9072;51.918;4.380;2023-09-08T04:27:39;17.47;;;15.93;;
17892;SDS011;9072;51.918;4.380;2023-09-08T04:30:07;19.13;;;17.43;;
17892;SDS011;9072;51.918;4.380;2023-09-08T04:32:34;17.73;;;15.97;;
17892;SDS011;9072;51.918;4.380;2023-09-08T04:35:03;18.03;;;16.43;;
17892;SDS011;9072;51.918;4.380;2023-09-08T04:37:33;18.73;;;16.97;;
17892;SDS011;9072;51.918;4.380;2023-09-08T04:40:01;19.07;;;17.27;;
17892;SDS011;9072;51.918;4.380;2023-09-08T04:42:29;17.93;;;16.23;;
17892;SDS011;9072;51.918;4.380;2023-09-08T04:44:56;18.80;;;16.90;;
17892;SDS011;9072;51.918;4.380;2023-09-08T04:47:24;18.67;;;16.97;;
17892;SDS011;9072;51.918;4.380;2023-09-08T04:49:51;18.40;;;16.80;;
17892;SDS011;9072;51.918;4.380;2023-09-08T04:52:18;20.47;;;18.47;;
17892;SDS011;9072;51.918;4.380;2023-09-08T04:54:47;21.03;;;19.07;;
17892;SDS011;9072;51.918;4.380;2023-09-08T04:57:14;20.43;;;18.50;;
17892;SDS011;9072;51.918;4.380;2023-09-08T04:59:41;20.03;;;18.07;;
17892;SDS011;9072;51.918;4.380;2023-09-08T05:02:08;20.23;;;18.30;;
17892;SDS011;9072;51.918;4.380;2023-09-08T05:04:36;20.73;;;18.73;;
17892;SDS011;9072;51.918;4.380;2023-09-08T05:07:03;19.27;;;17.57;;
17892;SDS011;9072;51.918;4.380;2023-09-08T05:09:30;21.73;;;19.33;;
17892;SDS011;9072;51.918;4.380;2023-09-08T05:11:59;21.20;;;19.20;;
17892;SDS011;9072;51.918;4.380;2023-09-08T05:14:27;20.37;;;18.30;;
17892;SDS011;9072;51.918;4.380;2023-09-08T05:16:54;19.80;;;18.10;;
17892;SDS011;9072;51.918;4.380;2023-09-08T05:19:21;19.47;;;17.70;;
17892;SDS011;9072;51.918;4.380;2023-09-08T05:21:51;20.53;;;18.33;;
17892;SDS011;9072;51.918;4.380;2023-09-08T05:24:19;20.67;;;18.80;;
17892;SDS011;9072;51.918;4.380;2023-09-08T05:26:51;19.80;;;17.80;;
17892;SDS011;9072;51.918;4.380;2023-09-08T05:29:20;19.30;;;17.50;;
17892;SDS011;9072;51.918;4.380;2023-09-08T05:31:47;19.93;;;18.23;;
17892;SDS011;9072;51.918;4.380;2023-09-08T05:34:14;17.67;;;16.17;;
17892;SDS011;9072;51.918;4.380;2023-09-08T05:36:42;19.63;;;17.77;;
17892;SDS011;9072;51.918;4.380;2023-09-08T05:39:09;17.30;;;15.80;;
17892;SDS011;9072;51.918;4.380;2023-09-08T05:41:38;17.90;;;16.30;;
17892;SDS011;9072;51.918;4.380;2023-09-08T05:44:06;18.80;;;16.97;;
17892;SDS011;9072;51.918;4.380;2023-09-08T05:46:34;18.93;;;17.13;;
17892;SDS011;9072;51.918;4.380;2023-09-08T05:49:02;19.07;;;17.27;;
17892;SDS011;9072;51.918;4.380;2023-09-08T05:51:30;18.20;;;16.63;;
17892;SDS011;9072;51.918;4.380;2023-09-08T05:53:58;17.63;;;16.07;;
17892;SDS011;9072;51.918;4.380;2023-09-08T05:56:29;19.50;;;17.60;;
17892;SDS011;9072;51.918;4.380;2023-09-08T05:58:57;18.83;;;17.13;;
17892;SDS011;9072;51.918;4.380;2023-09-08T06:01:26;20.17;;;18.10;;
17892;SDS011;9072;51.918;4.380;2023-09-08T06:03:55;20.30;;;18.37;;
17892;SDS011;9072;51.918;4.380;2023-09-08T06:06:23;19.37;;;17.47;;
17892;SDS011;9072;51.918;4.380;2023-09-08T06:08:53;20.83;;;18.80;;
17892;SDS011;9072;51.918;4.380;2023-09-08T06:11:21;19.13;;;17.43;;
17892;SDS011;9072;51.918;4.380;2023-09-08T06:13:48;20.50;;;18.37;;
17892;SDS011;9072;51.918;4.380;2023-09-08T06:16:15;20.07;;;18.17;;
17892;SDS011;9072;51.918;4.380;2023-09-08T06:18:42;18.60;;;17.00;;
17892;SDS011;9072;51.918;4.380;2023-09-08T06:21:11;18.63;;;16.90;;
17892;SDS011;9072;51.918;4.380;2023-09-08T06:23:38;19.73;;;17.87;;
17892;SDS011;9072;51.918;4.380;2023-09-08T06:26:05;19.90;;;17.83;;
17892;SDS011;9072;51.918;4.380;2023-09-08T06:28:32;18.53;;;16.83;;
17892;SDS011;9072;51.918;4.380;2023-09-08T06:30:59;18.90;;;16.93;;
17892;SDS011;9072;51.918;4.380;2023-09-08T06:33:26;19.63;;;17.80;;
17892;SDS011;9072;51.918;4.380;2023-09-08T06:35:53;21.63;;;19.73;;
17892;SDS011;9072;51.918;4.380;2023-09-08T06:38:22;21.13;;;19.10;;
17892;SDS011;9072;51.918;4.380;2023-09-08T06:40:49;20.57;;;18.63;;
17892;SDS011;9072;51.918;4.380;2023-09-08T06:43:19;19.30;;;17.70;;
17892;SDS011;9072;51.918;4.380;2023-09-08T06:45:47;19.47;;;17.67;;
17892;SDS011;9072;51.918;4.380;2023-09-08T06:48:17;20.20;;;18.50;;
17892;SDS011;9072;51.918;4.380;2023-09-08T06:50:44;19.80;;;17.80;;
17892;SDS011;9072;51.918;4.380;2023-09-08T06:53:11;19.80;;;17.90;;
17892;SDS011;9072;51.918;4.380;2023-09-08T06:55:40;19.57;;;17.67;;
17892;SDS011;9072;51.918;4.380;2023-09-08T06:58:07;18.70;;;16.90;;
17892;SDS011;9072;51.918;4.380;2023-09-08T07:00:35;17.67;;;16.07;;
17892;SDS011;9072;51.918;4.380;2023-09-08T07:03:04;20.43;;;18.17;;
17892;SDS011;9072;51.918;4.380;2023-09-08T07:05:33;21.27;;;18.97;;
17892;SDS011;9072;51.918;4.380;2023-09-08T07:08:00;18.80;;;17.10;;
17892;SDS011;9072;51.918;4.380;2023-09-08T07:10:27;21.90;;;19.70;;
17892;SDS011;9072;51.918;4.380;2023-09-08T07:13:05;19.10;;;17.30;;
17892;SDS011;9072;51.918;4.380;2023-09-08T07:15:32;19.20;;;17.43;;
17892;SDS011;9072;51.918;4.380;2023-09-08T07:17:59;20.00;;;18.10;;
17892;SDS011;9072;51.918;4.380;2023-09-08T07:20:26;21.30;;;19.17;;
17892;SDS011;9072;51.918;4.380;2023-09-08T07:22:53;22.00;;;19.70;;
17892;SDS011;9072;51.918;4.380;2023-09-08T07:25:20;21.70;;;19.67;;
17892;SDS011;9072;51.918;4.380;2023-09-08T07:27:47;21.30;;;19.10;;
17892;SDS011;9072;51.918;4.380;2023-09-08T07:30:19;19.60;;;17.90;;
17892;SDS011;9072;51.918;4.380;2023-09-08T07:32:46;18.97;;;17.17;;
17892;SDS011;9072;51.918;4.380;2023-09-08T07:35:13;18.83;;;17.13;;
17892;SDS011;9072;51.918;4.380;2023-09-08T07:37:42;21.57;;;19.47;;
17892;SDS011;9072;51.918;4.380;2023-09-08T07:40:10;21.03;;;18.93;;
17892;SDS011;9072;51.918;4.380;2023-09-08T07:42:37;18.83;;;16.90;;
17892;SDS011;9072;51.918;4.380;2023-09-08T07:45:05;19.60;;;17.93;;
17892;SDS011;9072;51.918;4.380;2023-09-08T07:47:36;21.70;;;19.40;;
17892;SDS011;9072;51.918;4.380;2023-09-08T07:50:16;20.23;;;18.13;;
17892;SDS011;9072;51.918;4.380;2023-09-08T07:52:45;19.10;;;17.40;;
17892;SDS011;9072;51.918;4.380;2023-09-08T07:55:12;21.93;;;19.80;;
17892;SDS011;9072;51.918;4.380;2023-09-08T07:57:39;18.90;;;17.17;;
17892;SDS011;9072;51.918;4.380;2023-09-08T08:00:07;19.30;;;17.43;;
17892;SDS011;9072;51.918;4.380;2023-09-08T08:02:39;19.00;;;17.40;;
17892;SDS011;9072;51.918;4.380;2023-09-08T08:05:08;21.37;;;19.37;;
17892;SDS011;9072;51.918;4.380;2023-09-08T08:07:35;21.17;;;19.20;;
17892;SDS011;9072;51.918;4.380;2023-09-08T08:10:05;20.80;;;18.80;;
17892;SDS011;9072;51.918;4.380;2023-09-08T08:12:35;20.37;;;18.53;;
17892;SDS011;9072;51.918;4.380;2023-09-08T08:15:02;21.30;;;19.40;;
17892;SDS011;9072;51.918;4.380;2023-09-08T08:17:30;22.30;;;20.27;;
17892;SDS011;9072;51.918;4.380;2023-09-08T08:19:59;21.37;;;19.20;;
17892;SDS011;9072;51.918;4.380;2023-09-08T08:22:31;22.73;;;20.60;;
17892;SDS011;9072;51.918;4.380;2023-09-08T08:24:59;22.07;;;19.97;;
17892;SDS011;9072;51.918;4.380;2023-09-08T08:27:26;21.53;;;19.30;;
17892;SDS011;9072;51.918;4.380;2023-09-08T08:29:56;17.15;;;15.50;;
17892;SDS011;9072;51.918;4.380;2023-09-08T08:32:24;17.85;;;16.20;;
17892;SDS011;9072;51.918;4.380;2023-09-08T08:34:51;17.23;;;15.65;;
17892;SDS011;9072;51.918;4.380;2023-09-08T08:37:20;20.00;;;15.75;;
17892;SDS011;9072;51.918;4.380;2023-09-08T08:39:47;19.45;;;15.25;;
17892;SDS011;9072;51.918;4.380;2023-09-08T08:42:14;18.30;;;16.55;;
17892;SDS011;9072;51.918;4.380;2023-09-08T08:44:41;15.65;;;14.00;;
17892;SDS011;9072;51.918;4.380;2023-09-08T08:47:11;17.55;;;15.75;;
17892;SDS011;9072;51.918;4.380;2023-09-08T08:49:41;15.82;;;14.43;;
17892;SDS011;9072;51.918;4.380;2023-09-08T08:52:11;15.32;;;13.88;;
17892;SDS011;9072;51.918;4.380;2023-09-08T08:54:40;16.85;;;15.32;;
17892;SDS011;9072;51.918;4.380;2023-09-08T08:57:10;15.88;;;14.18;;
17892;SDS011;9072;51.918;4.380;2023-09-08T08:59:41;14.80;;;13.40;;
17892;SDS011;9072;51.918;4.380;2023-09-08T09:02:09;14.98;;;13.50;;
17892;SDS011;9072;51.918;4.380;2023-09-08T09:04:40;14.80;;;13.50;;
17892;SDS011;9072;51.918;4.380;2023-09-08T09:07:08;17.27;;;15.52;;
17892;SDS011;9072;51.918;4.380;2023-09-08T09:09:35;14.25;;;12.80;;
17892;SDS011;9072;51.918;4.380;2023-09-08T09:12:07;16.05;;;14.55;;
17892;SDS011;9072;51.918;4.380;2023-09-08T09:14:34;15.77;;;14.15;;
17892;SDS011;9072;51.918;4.380;2023-09-08T09:17:01;14.68;;;13.32;;
17892;SDS011;9072;51.918;4.380;2023-09-08T09:19:30;13.05;;;11.82;;
17892;SDS011;9072;51.918;4.380;2023-09-08T09:21:57;16.80;;;15.13;;
17892;SDS011;9072;51.918;4.380;2023-09-08T09:24:28;15.90;;;14.52;;
17892;SDS011;9072;51.918;4.380;2023-09-08T09:26:58;14.52;;;13.05;;
17892;SDS011;9072;51.918;4.380;2023-09-08T09:29:26;15.63;;;14.02;;
17892;SDS011;9072;51.918;4.380;2023-09-08T09:31:55;17.98;;;13.93;;
17892;SDS011;9072;51.918;4.380;2023-09-08T09:34:24;14.90;;;13.27;;
17892;SDS011;9072;51.918;4.380;2023-09-08T09:36:51;14.55;;;12.90;;
17892;SDS011;9072;51.918;4.380;2023-09-08T09:39:19;14.07;;;12.70;;
17892;SDS011;9072;51.918;4.380;2023-09-08T09:41:49;12.93;;;11.32;;
17892;SDS011;9072;51.918;4.380;2023-09-08T09:44:19;15.13;;;12.40;;
17892;SDS011;9072;51.918;4.380;2023-09-08T09:46:51;13.40;;;12.02;;
17892;SDS011;9072;51.918;4.380;2023-09-08T09:49:18;13.27;;;12.18;;
17892;SDS011;9072;51.918;4.380;2023-09-08T09:51:47;15.60;;;12.95;;
17892;SDS011;9072;51.918;4.380;2023-09-08T09:54:16;14.57;;;13.05;;
17892;SDS011;9072;51.918;4.380;2023-09-08T09:56:43;13.68;;;12.35;;
17892;SDS011;9072;51.918;4.380;2023-09-08T09:59:12;14.05;;;12.60;;
17892;SDS011;9072;51.918;4.380;2023-09-08T10:01:40;12.60;;;11.30;;
17892;SDS011;9072;51.918;4.380;2023-09-08T10:04:12;16.88;;;11.88;;
17892;SDS011;9072;51.918;4.380;2023-09-08T10:06:41;17.92;;;11.52;;
17892;SDS011;9072;51.918;4.380;2023-09-08T10:09:13;13.70;;;11.50;;
17892;SDS011;9072;51.918;4.380;2023-09-08T10:11:44;9.35;;;8.15;;
17892;SDS011;9072;51.918;4.380;2023-09-08T10:14:19;14.20;;;8.77;;
17892;SDS011;9072;51.918;4.380;2023-09-08T10:16:50;11.90;;;8.57;;
17892;SDS011;9072;51.918;4.380;2023-09-08T10:19:23;10.15;;;5.60;;
17892;SDS011;9072;51.918;4.380;2023-09-08T10:21:54;11.02;;;8.00;;
17892;SDS011;9072;51.918;4.380;2023-09-08T10:24:26;15.55;;;8.65;;
17892;SDS011;9072;51.918;4.380;2023-09-08T10:26:56;9.00;;;6.75;;
17892;SDS011;9072;51.918;4.380;2023-09-08T10:29:27;9.85;;;8.15;;
17892;SDS011;9072;51.918;4.380;2023-09-08T10:31:56;7.18;;;5.90;;
17892;SDS011;9072;51.918;4.380;2023-09-08T10:34:27;8.95;;;6.20;;
17892;SDS011;9072;51.918;4.380;2023-09-08T10:36:58;6.95;;;6.20;;
17892;SDS011;9072;51.918;4.380;2023-09-08T10:39:29;7.50;;;5.30;;
17892;SDS011;9072;51.918;4.380;2023-09-08T10:42:20;7.78;;;6.80;;
17892;SDS011;9072;51.918;4.380;2023-09-08T10:44:58;8.45;;;7.55;;
17892;SDS011;9072;51.918;4.380;2023-09-08T10:47:41;8.95;;;6.47;;
17892;SDS011;9072;51.918;4.380;2023-09-08T10:50:27;14.52;;;8.80;;
17892;SDS011;9072;51.918;4.380;2023-09-08T10:53:04;11.57;;;7.85;;
17892;SDS011;9072;51.918;4.380;2023-09-08T10:55:39;9.68;;;8.77;;
17892;SDS011;9072;51.918;4.380;2023-09-08T10:58:11;10.07;;;9.07;;
17892;SDS011;9072;51.918;4.380;2023-09-08T11:00:46;10.07;;;8.70;;
17892;SDS011;9072;51.918;4.380;2023-09-08T11:03:14;12.23;;;10.10;;
17892;SDS011;9072;51.918;4.380;2023-09-08T11:05:55;8.52;;;7.50;;
17892;SDS011;9072;51.918;4.380;2023-09-08T11:08:23;6.18;;;5.57;;
17892;SDS011;9072;51.918;4.380;2023-09-08T11:10:52;9.32;;;7.32;;
17892;SDS011;9072;51.918;4.380;2023-09-08T11:13:22;9.82;;;8.90;;
17892;SDS011;9072;51.918;4.380;2023-09-08T11:15:50;8.77;;;7.75;;
17892;SDS011;9072;51.918;4.380;2023-09-08T11:18:25;9.13;;;8.23;;
17892;SDS011;9072;51.918;4.380;2023-09-08T11:20:53;11.40;;;9.73;;
17892;SDS011;9072;51.918;4.380;2023-09-08T11:23:24;10.55;;;9.13;;
17892;SDS011;9072;51.918;4.380;2023-09-08T11:25:53;14.00;;;10.32;;
17892;SDS011;9072;51.918;4.380;2023-09-08T11:28:23;10.73;;;9.68;;
17892;SDS011;9072;51.918;4.380;2023-09-08T11:30:50;11.73;;;8.25;;
17892;SDS011;9072;51.918;4.380;2023-09-08T11:33:18;11.20;;;8.98;;
17892;SDS011;9072;51.918;4.380;2023-09-08T11:35:51;9.80;;;7.88;;
17892;SDS011;9072;51.918;4.380;2023-09-08T11:38:23;9.88;;;7.90;;
17892;SDS011;9072;51.918;4.380;2023-09-08T11:40:55;7.53;;;6.32;;
17892;SDS011;9072;51.918;4.380;2023-09-08T11:43:24;9.55;;;8.23;;
17892;SDS011;9072;51.918;4.380;2023-09-08T11:45:57;8.38;;;7.43;;
17892;SDS011;9072;51.918;4.380;2023-09-08T11:48:25;11.13;;;7.05;;
17892;SDS011;9072;51.918;4.380;2023-09-08T11:50:53;7.20;;;6.57;;
17892;SDS011;9072;51.918;4.380;2023-09-08T11:53:23;6.57;;;5.82;;
17892;SDS011;9072;51.918;4.380;2023-09-08T11:55:53;5.70;;;5.20;;
17892;SDS011;9072;51.918;4.380;2023-09-08T11:58:20;6.05;;;5.47;;
17892;SDS011;9072;51.918;4.380;2023-09-08T12:00:51;5.90;;;4.88;;
17892;SDS011;9072;51.918;4.380;2023-09-08T12:03:18;6.20;;;5.60;;
17892;SDS011;9072;51.918;4.380;2023-09-08T12:05:50;6.75;;;5.93;;
17892;SDS011;9072;51.918;4.380;2023-09-08T12:08:18;7.55;;;6.32;;
17892;SDS011;9072;51.918;4.380;2023-09-08T12:10:47;6.10;;;5.20;;
17892;SDS011;9072;51.918;4.380;2023-09-08T12:13:20;8.63;;;6.78;;
17892;SDS011;9072;51.918;4.380;2023-09-08T12:15:47;6.70;;;5.50;;
17892;SDS011;9072;51.918;4.380;2023-09-08T12:18:14;10.90;;;5.32;;
17892;SDS011;9072;51.918;4.380;2023-09-08T12:20:42;6.88;;;6.25;;
17892;SDS011;9072;51.918;4.380;2023-09-08T12:23:15;6.00;;;5.40;;
17892;SDS011;9072;51.918;4.380;2023-09-08T12:25:44;5.65;;;4.90;;
17892;SDS011;9072;51.918;4.380;2023-09-08T12:28:13;8.15;;;5.65;;
17892;SDS011;9072;51.918;4.380;2023-09-08T12:30:40;7.45;;;5.90;;
17892;SDS011;9072;51.918;4.380;2023-09-08T12:33:08;7.10;;;6.38;;
17892;SDS011;9072;51.918;4.380;2023-09-08T12:35:37;6.90;;;6.20;;
17892;SDS011;9072;51.918;4.380;2023-09-08T12:38:05;6.78;;;4.45;;
17892;SDS011;9072;51.918;4.380;2023-09-08T12:40:33;6.35;;;4.60;;
17892;SDS011;9072;51.918;4.380;2023-09-08T12:43:02;6.15;;;4.40;;
17892;SDS011;9072;51.918;4.380;2023-09-08T12:45:41;4.90;;;4.40;;
17892;SDS011;9072;51.918;4.380;2023-09-08T12:48:08;5.82;;;4.60;;
17892;SDS011;9072;51.918;4.380;2023-09-08T12:50:39;7.03;;;4.47;;
17892;SDS011;9072;51.918;4.380;2023-09-08T12:53:06;8.10;;;4.40;;
17892;SDS011;9072;51.918;4.380;2023-09-08T12:55:34;6.45;;;4.60;;
17892;SDS011;9072;51.918;4.380;2023-09-08T12:58:02;4.10;;;3.67;;
17892;SDS011;9072;51.918;4.380;2023-09-08T13:00:29;5.03;;;3.80;;
17892;SDS011;9072;51.918;4.380;2023-09-08T13:03:09;8.35;;;4.38;;
17892;SDS011;9072;51.918;4.380;2023-09-08T13:05:36;5.13;;;3.95;;
17892;SDS011;9072;51.918;4.380;2023-09-08T13:08:04;4.80;;;3.72;;
17892;SDS011;9072;51.918;4.380;2023-09-08T13:10:31;4.22;;;3.63;;
17892;SDS011;9072;51.918;4.380;2023-09-08T13:12:59;4.35;;;3.40;;
17892;SDS011;9072;51.918;4.380;2023-09-08T13:15:26;5.20;;;3.65;;
17892;SDS011;9072;51.918;4.380;2023-09-08T13:17:55;3.70;;;3.40;;
17892;SDS011;9072;51.918;4.380;2023-09-08T13:20:29;7.57;;;3.80;;
17892;SDS011;9072;51.918;4.380;2023-09-08T13:22:58;5.70;;;3.90;;
17892;SDS011;9072;51.918;4.380;2023-09-08T13:25:25;5.38;;;3.75;;
17892;SDS011;9072;51.918;4.380;2023-09-08T13:27:53;6.07;;;3.92;;
17892;SDS011;9072;51.918;4.380;2023-09-08T13:30:23;6.38;;;4.00;;
17892;SDS011;9072;51.918;4.380;2023-09-08T13:32:53;5.13;;;4.25;;
17892;SDS011;9072;51.918;4.380;2023-09-08T13:35:24;6.05;;;4.18;;
17892;SDS011;9072;51.918;4.380;2023-09-08T13:37:53;5.72;;;3.65;;
17892;SDS011;9072;51.918;4.380;2023-09-08T13:40:20;7.70;;;3.97;;
17892;SDS011;9072;51.918;4.380;2023-09-08T13:42:47;6.30;;;3.53;;
17892;SDS011;9072;51.918;4.380;2023-09-08T13:45:16;4.75;;;3.70;;
17892;SDS011;9072;51.918;4.380;2023-09-08T13:47:49;5.32;;;3.50;;
17892;SDS011;9072;51.918;4.380;2023-09-08T13:50:16;4.82;;;3.92;;
17892;SDS011;9072;51.918;4.380;2023-09-08T13:52:48;4.50;;;3.78;;
17892;SDS011;9072;51.918;4.380;2023-09-08T13:55:19;4.22;;;3.83;;
17892;SDS011;9072;51.918;4.380;2023-09-08T13:57:49;5.05;;;3.97;;
17892;SDS011;9072;51.918;4.380;2023-09-08T14:00:16;6.15;;;3.67;;
17892;SDS011;9072;51.918;4.380;2023-09-08T14:02:45;4.43;;;3.80;;
17892;SDS011;9072;51.918;4.380;2023-09-08T14:05:15;6.43;;;3.65;;
17892;SDS011;9072;51.918;4.380;2023-09-08T14:07:43;7.32;;;4.13;;
17892;SDS011;9072;51.918;4.380;2023-09-08T14:10:10;5.20;;;4.00;;
17892;SDS011;9072;51.918;4.380;2023-09-08T14:12:40;7.45;;;4.00;;
17892;SDS011;9072;51.918;4.380;2023-09-08T14:15:10;8.23;;;4.65;;
17892;SDS011;9072;51.918;4.380;2023-09-08T14:17:40;6.35;;;4.45;;
17892;SDS011;9072;51.918;4.380;2023-09-08T14:20:08;6.25;;;4.22;;
17892;SDS011;9072;51.918;4.380;2023-09-08T14:22:39;7.82;;;4.85;;
17892;SDS011;9072;51.918;4.380;2023-09-08T14:25:06;8.00;;;4.72;;
17892;SDS011;9072;51.918;4.380;2023-09-08T14:27:35;7.32;;;4.80;;
17892;SDS011;9072;51.918;4.380;2023-09-08T14:30:05;8.57;;;5.55;;
17892;SDS011;9072;51.918;4.380;2023-09-08T14:32:36;11.02;;;5.40;;
17892;SDS011;9072;51.918;4.380;2023-09-08T14:35:06;7.43;;;4.85;;
17892;SDS011;9072;51.918;4.380;2023-09-08T14:37:37;9.20;;;6.25;;
17892;SDS011;9072;51.918;4.380;2023-09-08T14:40:08;5.85;;;5.22;;
17892;SDS011;9072;51.918;4.380;2023-09-08T14:42:40;8.27;;;5.85;;
17892;SDS011;9072;51.918;4.380;2023-09-08T14:45:11;8.75;;;5.70;;
17892;SDS011;9072;51.918;4.380;2023-09-08T14:47:38;7.05;;;5.63;;
17892;SDS011;9072;51.918;4.380;2023-09-08T14:50:07;9.32;;;5.45;;
17892;SDS011;9072;51.918;4.380;2023-09-08T14:52:35;8.80;;;5.63;;
17892;SDS011;9072;51.918;4.380;2023-09-08T14:55:03;8.65;;;5.50;;
17892;SDS011;9072;51.918;4.380;2023-09-08T14:57:31;8.82;;;5.82;;